Time;durP1;ratioP1;P1;durP2;ratioP2;P2;SDS_P1;SDS_P2;PMS_P1;PMS_P2;Temp;Humidity;BMP_temperature;BMP_pressure;BME280_temperature;BME280_humidity;BME280_pressure;Samples;Min_cycle;Max_cycle;Signal;HPM_P1;HPM_P2
2023/01/03 00:02:51;;;;;;;45.70;21.95;;;11.90;89.90;;;;;;10943784;32;20057;-73
2023/01/03 00:09:31;;;;;;;27.83;17.00;;;12.00;89.90;;;;;;10943831;32;20385;-73
2023/01/03 00:15:34;;;;;;;30.05;14.98;;;12.10;89.80;;;;;;10939608;32;20019;-73
2023/01/03 00:21:37;;;;;;;29.63;16.48;;;12.00;89.80;;;;;;10947185;27;20318;-73
2023/01/03 00:27:39;;;;;;;52.17;29.37;;;12.10;89.90;;;;;;10943133;32;20022;-73
2023/01/03 00:33:41;;;;;;;40.10;18.87;;;12.00;89.80;;;;;;10929638;32;20059;-73
2023/01/03 00:39:43;;;;;;;33.92;18.77;;;12.10;89.80;;;;;;10942879;32;20045;-73
2023/01/03 00:45:45;;;;;;;34.45;20.62;;;12.10;89.70;;;;;;10942671;32;20303;-73
2023/01/03 00:51:47;;;;;;;49.70;26.05;;;12.10;89.70;;;;;;10942261;32;20042;-73
2023/01/03 00:57:49;;;;;;;36.42;20.02;;;12.10;89.80;;;;;;10928911;32;20037;-73
2023/01/03 01:04:03;;;;;;;27.77;16.33;;;12.20;89.80;;;;;;10928431;32;20097;-73
2023/01/03 01:10:05;;;;;;;37.58;19.20;;;12.20;89.80;;;;;;10941588;32;20386;-73
2023/01/03 01:16:14;;;;;;;31.33;15.55;;;12.00;89.80;;;;;;10941822;32;20019;-73
2023/01/03 01:22:16;;;;;;;26.67;14.80;;;12.10;89.90;;;;;;10928234;32;20053;-73
2023/01/03 01:28:17;;;;;;;27.95;13.40;;;12.00;89.80;;;;;;10928439;32;20345;-73
2023/01/03 01:34:19;;;;;;;22.55;13.40;;;11.80;89.80;;;;;;10941504;32;20011;-73
2023/01/03 01:40:22;;;;;;;36.33;18.02;;;11.70;89.90;;;;;;10927550;32;20062;-73
2023/01/03 01:46:31;;;;;;;26.08;15.07;;;11.80;90.00;;;;;;10933931;32;20033;-73
2023/01/03 01:52:36;;;;;;;30.35;14.25;;;11.90;89.90;;;;;;10927209;32;20035;-73
2023/01/03 01:58:42;;;;;;;27.52;13.73;;;11.80;89.80;;;;;;10941052;32;20037;-73
2023/01/03 02:04:52;;;;;;;23.23;14.63;;;11.70;89.80;;;;;;10929225;32;20022;-73
2023/01/03 02:11:22;;;;;;;28.52;14.52;;;11.70;90.00;;;;;;10948124;32;20003;-73
2023/01/03 02:18:20;;;;;;;22.10;14.43;;;11.70;90.00;;;;;;10946974;32;20031;-73
2023/01/03 02:24:57;;;;;;;26.85;14.90;;;11.80;89.90;;;;;;10868224;32;20249;-73
2023/01/03 02:31:51;;;;;;;24.63;15.90;;;11.80;89.80;;;;;;10868827;32;20019;-72
2023/01/03 02:38:24;;;;;;;26.25;13.98;;;11.90;89.90;;;;;;10742907;33;20405;-72
2023/01/03 02:44:32;;;;;;;27.45;14.95;;;11.80;89.80;;;;;;10758154;33;20057;-72
2023/01/03 02:50:55;;;;;;;27.73;14.20;;;11.80;89.80;;;;;;10757777;33;20032;-73
2023/01/03 02:57:05;;;;;;;18.58;11.90;;;11.80;89.70;;;;;;10777161;33;20028;-73
2023/01/03 03:03:13;;;;;;;25.00;15.65;;;11.80;89.80;;;;;;10793521;33;20362;-73
2023/01/03 03:09:16;;;;;;;28.35;15.52;;;11.70;89.90;;;;;;10804501;32;20022;-72
2023/01/03 03:15:22;;;;;;;36.65;21.55;;;11.80;89.90;;;;;;10928956;32;20428;-72
2023/01/03 03:34:37;;;;;;;34.33;21.12;;;11.80;89.80;;;;;;10830049;32;20055;-73
2023/01/03 03:47:17;;;;;;;;;;;11.80;89.70;;;;;;10861009;32;20411;-72
2023/01/03 03:53:25;;;;;;;29.05;17.80;;;11.80;89.70;;;;;;10864967;32;20246;-72
2023/01/03 03:59:29;;;;;;;24.70;16.15;;;11.80;89.80;;;;;;10859412;32;20337;-72
2023/01/03 04:05:35;;;;;;;19.98;13.10;;;11.70;89.70;;;;;;10937663;32;20026;-72
2023/01/03 04:11:37;;;;;;;34.03;19.40;;;11.70;89.80;;;;;;10943987;32;20448;-72
2023/01/03 04:17:39;;;;;;;23.05;14.07;;;11.70;89.90;;;;;;10929795;32;20027;-72
2023/01/03 04:23:41;;;;;;;26.25;13.85;;;11.70;89.90;;;;;;10943374;32;20022;-71
2023/01/03 04:29:43;;;;;;;27.58;16.87;;;11.80;89.80;;;;;;10942749;32;20011;-72
2023/01/03 04:35:45;;;;;;;32.63;21.90;;;11.70;89.80;;;;;;10942970;32;20015;-71
2023/01/03 04:41:47;;;;;;;36.13;22.35;;;11.70;90.00;;;;;;10942816;32;20038;-71
2023/01/03 04:47:51;;;;;;;33.17;20.20;;;11.70;90.10;;;;;;10942613;32;20045;-71
2023/01/03 04:53:54;;;;;;;37.15;21.83;;;11.70;90.00;;;;;;10942422;32;20011;-72
2023/01/03 04:59:56;;;;;;;25.98;15.30;;;11.80;90.00;;;;;;10938168;32;20385;-72
2023/01/03 05:06:06;;;;;;;25.23;18.42;;;11.80;89.90;;;;;;10928482;32;20050;-72
2023/01/03 05:12:11;;;;;;;39.72;24.00;;;11.80;89.90;;;;;;10942688;32;20015;-72
2023/01/03 05:18:13;;;;;;;44.28;28.33;;;11.70;89.90;;;;;;10941913;32;20077;-72
2023/01/03 05:30:36;;;;;;;20.48;15.43;;;11.70;90.00;;;;;;10941636;32;20340;-72
2023/01/03 05:36:38;;;;;;;20.50;13.02;;;11.80;90.00;;;;;;10941443;32;20031;-73
2023/01/03 05:42:40;;;;;;;20.75;13.75;;;11.70;89.90;;;;;;10948102;32;20023;-72
2023/01/03 05:48:42;;;;;;;30.20;19.33;;;11.80;89.90;;;;;;10948899;32;20038;-72
2023/01/03 05:54:44;;;;;;;32.47;20.58;;;11.70;89.90;;;;;;10935289;32;20333;-72
2023/01/03 06:00:46;;;;;;;22.85;13.77;;;11.70;90.10;;;;;;10948514;32;20314;-72
2023/01/03 06:06:49;;;;;;;27.95;16.10;;;11.70;90.00;;;;;;10934779;32;20019;-72
2023/01/03 06:12:52;;;;;;;19.60;13.55;;;11.70;90.00;;;;;;10934449;32;20069;-72
2023/01/03 06:18:55;;;;;;;22.02;15.40;;;11.70;90.00;;;;;;10944386;32;20015;-72
2023/01/03 06:24:57;;;;;;;17.15;12.13;;;11.70;90.00;;;;;;10958649;32;20034;-72
2023/01/03 06:30:59;;;;;;;17.50;12.45;;;11.70;90.00;;;;;;10981154;32;20037;-72
2023/01/03 06:37:01;;;;;;;22.67;12.55;;;11.70;90.00;;;;;;10971240;32;20041;-72
2023/01/03 06:43:04;;;;;;;14.23;10.35;;;11.70;90.00;;;;;;10984757;32;20011;-72
2023/01/03 06:55:36;;;;;;;18.27;10.30;;;11.60;89.90;;;;;;10984427;32;20015;-72
2023/01/03 07:01:38;;;;;;;22.50;12.13;;;11.50;90.00;;;;;;10963182;32;20022;-72
2023/01/03 07:07:40;;;;;;;19.85;9.50;;;11.40;90.10;;;;;;10946319;32;20042;-72
2023/01/03 07:13:58;;;;;;;28.00;14.07;;;11.50;90.10;;;;;;10945957;32;20077;-72
2023/01/03 07:20:00;;;;;;;21.83;14.95;;;11.50;90.10;;;;;;10945901;32;20027;-72
2023/01/03 07:26:02;;;;;;;26.12;11.55;;;11.60;90.10;;;;;;10945562;32;20023;-71
2023/01/03 07:32:07;;;;;;;21.27;12.73;;;11.50;90.00;;;;;;10932008;32;20023;-72
2023/01/03 07:38:11;;;;;;;15.57;10.05;;;11.50;90.00;;;;;;10945138;32;20041;-71
2023/01/03 07:44:13;;;;;;;17.10;9.00;;;11.50;90.00;;;;;;10944822;32;20054;-71
2023/01/03 07:50:15;;;;;;;30.35;20.25;;;11.50;90.00;;;;;;10944711;32;20018;-73
2023/01/03 07:56:18;;;;;;;21.15;10.73;;;11.40;90.00;;;;;;10955918;32;20023;-73
2023/01/03 08:02:21;;;;;;;23.50;12.55;;;11.40;89.90;;;;;;10942239;32;20337;-73
2023/01/03 08:13:16;;;;;;;23.00;13.32;;;11.40;90.00;;;;;;10938233;32;20365;-73
2023/01/03 08:15:12;;;;;;;25.27;12.93;;;11.40;89.90;;;;;;10889965;32;20030;-74
2023/01/03 08:25:32;;;;;;;22.62;12.37;;;11.40;89.90;;;;;;10622256;32;12489546;-74
2023/01/03 08:31:40;;;;;;;25.70;11.63;;;11.40;89.80;;;;;;10968536;32;20018;-74
2023/01/03 08:37:44;;;;;;;36.27;16.40;;;11.40;89.90;;;;;;10971101;32;20061;-73
2023/01/03 08:43:47;;;;;;;35.47;22.23;;;11.50;89.90;;;;;;10957452;32;20034;-73
2023/01/03 08:49:49;;;;;;;28.55;17.25;;;11.50;89.90;;;;;;11000834;32;20380;-74
2023/01/03 08:55:51;;;;;;;25.37;13.45;;;11.70;89.90;;;;;;11008598;32;20462;-74
2023/01/03 09:02:00;;;;;;;24.55;15.65;;;11.60;89.90;;;;;;10997563;32;20339;-73
2023/01/03 09:08:02;;;;;;;22.87;13.13;;;11.70;89.90;;;;;;11007576;32;20033;-73
2023/01/03 09:14:04;;;;;;;27.15;14.25;;;11.70;89.80;;;;;;11011025;32;20289;-74
2023/01/03 09:20:07;;;;;;;22.60;14.55;;;11.70;89.90;;;;;;10997260;32;20423;-73
2023/01/03 09:26:09;;;;;;;24.17;15.10;;;11.70;89.80;;;;;;11010606;32;20034;-73
2023/01/03 09:32:11;;;;;;;31.52;18.48;;;11.80;89.90;;;;;;10991217;32;20081;-73
2023/01/03 09:38:13;;;;;;;32.58;16.35;;;11.90;90.00;;;;;;10971336;32;20011;-73
2023/01/03 09:44:16;;;;;;;22.17;13.23;;;11.90;89.90;;;;;;10984399;32;20431;-73
2023/01/03 09:50:25;;;;;;;29.83;21.00;;;11.90;89.90;;;;;;10970535;32;20049;-73
2023/01/03 10:10:16;;;;;;;39.90;20.30;;;11.90;89.80;;;;;;10983685;32;20022;-73
2023/01/03 10:17:09;;;;;;;27.58;17.15;;;11.90;89.80;;;;;;10983452;32;20019;-73
2023/01/03 10:23:12;;;;;;;30.08;20.25;;;11.90;89.90;;;;;;10776318;32;20071;-73
2023/01/03 10:29:16;;;;;;;24.00;17.70;;;12.00;90.00;;;;;;10792364;32;20433;-73
2023/01/03 10:35:29;;;;;;;29.75;18.15;;;12.10;89.90;;;;;;10792289;32;20314;-74
2023/01/03 10:41:45;;;;;;;19.95;13.18;;;12.20;89.90;;;;;;10792083;32;20472;-74
2023/01/03 10:47:58;;;;;;;18.52;12.55;;;12.20;89.90;;;;;;10776212;32;20036;-73
2023/01/03 10:54:29;;;;;;;23.40;16.20;;;12.20;89.60;;;;;;10785836;32;20038;-73
2023/01/03 11:00:37;;;;;;;29.55;16.98;;;12.20;89.60;;;;;;10981555;32;20066;-73
2023/01/03 11:06:55;;;;;;;33.10;20.55;;;12.30;89.60;;;;;;10965601;32;20031;-73
2023/01/03 11:12:57;;;;;;;33.72;24.48;;;12.40;89.60;;;;;;10977296;32;20037;-73
2023/01/03 11:19:05;;;;;;;26.12;15.70;;;12.50;89.50;;;;;;10967386;32;20030;-73
2023/01/03 11:25:35;;;;;;;21.00;13.45;;;12.70;89.40;;;;;;10980719;32;20027;-74
2023/01/03 11:31:43;;;;;;;28.33;17.55;;;12.70;89.40;;;;;;10981179;32;20045;-73
2023/01/03 11:38:00;;;;;;;21.75;15.27;;;12.70;89.40;;;;;;10980691;32;20018;-73
2023/01/03 11:44:30;;;;;;;15.70;10.57;;;12.80;89.60;;;;;;10966599;32;20034;-73
2023/01/03 11:50:58;;;;;;;30.55;18.35;;;12.80;89.50;;;;;;10978041;32;20018;-73
2023/01/03 11:57:11;;;;;;;22.85;16.92;;;12.80;89.30;;;;;;10980345;32;20053;-73
2023/01/03 12:03:47;;;;;;;24.80;17.87;;;12.80;89.30;;;;;;10965987;32;20039;-74
2023/01/03 12:09:58;;;;;;;27.40;17.67;;;12.80;89.10;;;;;;10979529;32;20037;-74
2023/01/03 12:16:11;;;;;;;33.10;22.62;;;12.80;89.10;;;;;;10965602;32;20034;-73
2023/01/03 12:22:19;;;;;;;25.30;17.00;;;12.80;89.00;;;;;;10979292;32;20053;-74
2023/01/03 12:28:34;;;;;;;24.87;16.80;;;12.80;89.00;;;;;;10979291;32;20065;-73
2023/01/03 12:34:57;;;;;;;23.58;14.60;;;12.80;89.00;;;;;;10960974;32;20030;-74
2023/01/03 12:41:13;;;;;;;19.65;11.95;;;12.80;89.10;;;;;;10978971;32;20026;-73
2023/01/03 12:47:36;;;;;;;24.60;16.12;;;13.00;89.00;;;;;;10978864;32;20022;-73
2023/01/03 12:54:08;;;;;;;22.15;16.20;;;13.00;88.90;;;;;;10978471;32;20057;-73
2023/01/03 13:00:24;;;;;;;22.52;15.32;;;13.10;88.80;;;;;;10975438;32;20050;-73
2023/01/03 13:06:35;;;;;;;23.15;16.37;;;13.20;89.00;;;;;;10964756;32;20030;-73
2023/01/03 13:12:42;;;;;;;24.25;15.98;;;13.20;88.90;;;;;;10985559;32;20046;-73
2023/01/03 13:18:44;;;;;;;25.55;15.70;;;13.20;88.90;;;;;;10981886;32;20014;-73
2023/01/03 13:24:52;;;;;;;34.05;22.75;;;13.20;88.80;;;;;;10984684;32;20058;-73
2023/01/03 13:31:18;;;;;;;33.65;22.65;;;13.20;88.50;;;;;;10985195;32;20041;-73
2023/01/03 13:37:44;;;;;;;30.05;20.90;;;13.30;88.40;;;;;;10971476;32;20031;-73
2023/01/03 13:43:50;;;;;;;33.28;21.45;;;13.40;88.20;;;;;;10970665;32;20041;-73
2023/01/03 13:49:53;;;;;;;26.85;18.80;;;13.30;88.20;;;;;;10970741;32;20450;-73
2023/01/03 13:56:19;;;;;;;24.35;16.17;;;13.30;88.00;;;;;;10984143;32;20034;-73
2023/01/03 14:02:59;;;;;;;23.60;15.45;;;13.20;88.20;;;;;;10975614;32;20066;-73
2023/01/03 14:09:10;;;;;;;24.10;17.20;;;13.30;88.60;;;;;;10983897;32;20396;-73
2023/01/03 14:15:24;;;;;;;16.30;11.80;;;13.30;88.50;;;;;;10983501;32;20026;-73
2023/01/03 14:21:40;;;;;;;19.77;11.48;;;13.20;88.60;;;;;;10969083;32;20034;-73
2023/01/03 14:27:42;;;;;;;15.95;11.27;;;13.20;88.80;;;;;;10969755;32;20392;-73
2023/01/03 14:33:57;;;;;;;18.65;12.73;;;13.20;89.20;;;;;;10980786;32;20022;-73
2023/01/03 14:40:05;;;;;;;16.35;11.52;;;13.50;89.30;;;;;;10982525;32;20015;-73
2023/01/03 14:46:10;;;;;;;20.92;12.25;;;13.80;88.90;;;;;;10968748;32;20023;-73
2023/01/03 14:52:40;;;;;;;21.37;16.12;;;13.90;88.80;;;;;;10980919;32;20066;-73
2023/01/03 14:58:46;;;;;;;18.85;14.35;;;14.00;88.70;;;;;;10971935;32;20080;-73
2023/01/03 15:04:51;;;;;;;26.25;16.37;;;14.00;88.90;;;;;;10981435;32;20056;-73
2023/01/03 15:11:04;;;;;;;17.42;13.35;;;14.10;88.90;;;;;;10981305;32;20049;-73
2023/01/03 15:17:15;;;;;;;25.17;17.83;;;14.20;88.90;;;;;;10981177;32;20042;-73
2023/01/03 15:23:33;;;;;;;20.88;15.90;;;14.20;88.80;;;;;;10980786;32;20400;-73
2023/01/03 15:29:43;;;;;;;22.00;16.33;;;14.20;88.90;;;;;;10980478;32;20023;-73
2023/01/03 15:35:49;;;;;;;26.87;19.77;;;14.20;88.80;;;;;;10966966;32;20420;-73
2023/01/03 15:48:20;;;;;;;22.87;15.55;;;14.20;88.90;;;;;;10981121;32;20037;-73
2023/01/03 15:54:22;;;;;;;19.80;15.27;;;14.20;89.00;;;;;;10979775;32;20042;-74
2023/01/03 16:00:25;;;;;;;29.52;21.42;;;14.20;88.90;;;;;;10979667;32;20348;-74
2023/01/03 16:06:27;;;;;;;30.17;18.02;;;14.20;88.90;;;;;;10960661;32;20031;-74
2023/01/03 16:12:51;;;;;;;20.25;16.70;;;14.20;88.70;;;;;;10966068;32;20027;-73
2023/01/03 16:18:53;;;;;;;22.45;17.05;;;14.20;88.80;;;;;;10964702;32;20072;-73
2023/01/03 16:24:55;;;;;;;23.50;18.90;;;14.20;88.80;;;;;;10952756;27;20030;-73
2023/01/03 16:31:27;;;;;;;27.92;20.98;;;14.20;88.80;;;;;;10975892;32;20026;-73
2023/01/03 16:37:29;;;;;;;23.48;19.17;;;14.30;88.70;;;;;;10974960;32;20049;-73
2023/01/03 16:43:31;;;;;;;26.05;18.62;;;14.30;88.50;;;;;;10977812;32;20054;-73
2023/01/03 16:49:34;;;;;;;24.87;19.48;;;14.30;88.50;;;;;;10985138;32;20327;-73
2023/01/03 16:55:38;;;;;;;21.65;18.23;;;14.30;88.30;;;;;;10986251;32;20439;-73
2023/01/03 17:01:40;;;;;;;25.77;17.80;;;14.20;88.40;;;;;;10984983;32;20057;-73
2023/01/03 17:07:46;;;;;;;29.05;21.85;;;14.20;88.50;;;;;;10985511;32;20077;-73
2023/01/03 17:13:48;;;;;;;29.12;20.27;;;14.20;88.20;;;;;;10981871;32;20014;-73
2023/01/03 17:19:50;;;;;;;23.33;18.23;;;14.20;88.20;;;;;;10985441;32;20045;-73
2023/01/03 17:25:53;;;;;;;21.77;15.70;;;14.20;88.30;;;;;;10985109;32;20058;-73
2023/01/03 17:31:55;;;;;;;24.73;18.12;;;14.10;88.10;;;;;;10985007;32;20011;-73
2023/01/03 17:37:57;;;;;;;31.08;24.40;;;14.10;88.10;;;;;;10984770;32;20015;-73
2023/01/03 17:43:59;;;;;;;25.88;20.75;;;14.10;88.10;;;;;;10984603;32;20321;-73
2023/01/03 17:50:01;;;;;;;30.17;23.42;;;14.10;88.10;;;;;;10984458;32;20019;-73
2023/01/03 17:56:04;;;;;;;34.08;24.10;;;14.10;88.00;;;;;;10984190;32;20053;-73
2023/01/03 18:02:21;;;;;;;24.63;19.17;;;14.00;88.00;;;;;;10983999;32;20023;-73
2023/01/03 18:08:24;;;;;;;30.08;20.52;;;14.00;88.00;;;;;;10946595;32;20034;-73
2023/01/03 18:14:27;;;;;;;25.17;19.90;;;13.90;88.00;;;;;;10942813;32;20423;-73
2023/01/03 18:20:29;;;;;;;27.25;22.15;;;13.90;88.10;;;;;;10944049;32;20058;-74
2023/01/03 18:26:38;;;;;;;28.58;20.50;;;13.80;88.00;;;;;;10944248;32;20034;-73
2023/01/03 18:32:40;;;;;;;30.42;23.60;;;13.80;87.90;;;;;;10944669;32;20349;-74
2023/01/03 18:38:42;;;;;;;31.98;24.83;;;13.70;87.80;;;;;;10943985;32;20030;-73
2023/01/03 18:44:44;;;;;;;28.05;21.77;;;13.70;88.00;;;;;;10945051;32;20050;-73
2023/01/03 18:50:49;;;;;;;26.00;20.65;;;13.70;87.80;;;;;;10944600;32;20031;-73
2023/01/03 18:56:51;;;;;;;24.42;20.40;;;13.70;87.70;;;;;;10944443;32;20054;-73
2023/01/03 19:02:53;;;;;;;30.20;24.05;;;13.40;88.10;;;;;;10943669;32;20058;-74
2023/01/03 19:08:58;;;;;;;24.17;19.08;;;13.50;88.20;;;;;;10942979;32;20050;-74
2023/01/03 19:15:00;;;;;;;23.62;16.33;;;13.60;87.90;;;;;;10939293;32;20045;-73
2023/01/03 19:21:02;;;;;;;21.95;16.95;;;13.50;88.00;;;;;;10943243;32;20030;-74
2023/01/03 19:27:10;;;;;;;23.48;18.87;;;13.20;88.20;;;;;;10940266;32;20026;-74
2023/01/03 19:33:14;;;;;;;25.75;18.62;;;12.90;88.50;;;;;;10942895;32;20085;-73
2023/01/03 19:39:17;;;;;;;19.95;15.35;;;12.80;88.70;;;;;;10938629;32;20018;-74
2023/01/03 19:45:27;;;;;;;21.80;18.23;;;12.80;88.80;;;;;;10942573;32;20031;-73
2023/01/03 19:51:29;;;;;;;29.02;22.08;;;12.80;88.80;;;;;;10942388;32;20042;-73
2023/01/03 19:57:32;;;;;;;21.37;17.27;;;12.80;89.00;;;;;;10942048;32;20399;-73
2023/01/03 20:03:38;;;;;;;29.75;22.77;;;13.00;88.70;;;;;;10940324;32;20318;-73
2023/01/03 20:09:40;;;;;;;31.25;22.70;;;13.10;88.70;;;;;;10941750;32;20389;-73
2023/01/03 20:15:44;;;;;;;30.40;22.05;;;13.30;88.60;;;;;;10940838;32;20345;-73
2023/01/03 20:21:48;;;;;;;31.80;24.37;;;13.40;88.50;;;;;;10938762;32;20030;-74
2023/01/03 20:27:51;;;;;;;29.00;22.67;;;13.50;88.40;;;;;;10941376;32;20019;-73
2023/01/03 20:33:54;;;;;;;26.23;20.85;;;13.50;88.30;;;;;;10939262;32;20053;-73
2023/01/03 20:39:56;;;;;;;25.40;20.30;;;13.50;88.10;;;;;;10941057;32;20015;-73
2023/01/03 20:45:58;;;;;;;28.23;19.65;;;13.30;88.30;;;;;;10940971;32;20053;-73
2023/01/03 20:52:00;;;;;;;28.15;20.92;;;13.20;88.60;;;;;;10939750;32;20050;-73
2023/01/03 20:58:02;;;;;;;24.00;18.27;;;13.30;88.50;;;;;;10940601;32;20027;-73
2023/01/03 21:04:04;;;;;;;23.45;18.70;;;13.20;88.30;;;;;;10939648;32;20442;-73
2023/01/03 21:10:16;;;;;;;30.30;22.17;;;13.10;88.60;;;;;;10940168;32;20431;-73
2023/01/03 21:16:35;;;;;;;26.10;21.62;;;13.20;88.70;;;;;;10935979;32;20038;-73
2023/01/03 21:22:37;;;;;;;35.83;25.80;;;13.20;88.50;;;;;;10939904;32;20031;-74
2023/01/03 21:28:39;;;;;;;26.25;21.87;;;13.30;88.40;;;;;;10941605;32;20402;-74
2023/01/03 21:34:41;;;;;;;31.80;23.83;;;13.40;88.20;;;;;;10943022;32;20349;-73
2023/01/03 21:40:47;;;;;;;25.77;22.25;;;13.30;88.20;;;;;;10947077;32;20384;-73
2023/01/03 21:46:50;;;;;;;33.42;25.58;;;13.40;88.20;;;;;;10945798;32;20031;-73
2023/01/03 21:52:52;;;;;;;23.92;18.87;;;13.40;88.20;;;;;;10946861;32;20015;-73
2023/01/03 21:58:54;;;;;;;27.20;20.75;;;13.30;88.10;;;;;;10946730;32;20049;-73
2023/01/03 22:04:57;;;;;;;27.80;19.75;;;13.30;88.10;;;;;;10946266;32;20018;-73
2023/01/03 22:10:59;;;;;;;28.52;21.35;;;13.20;88.10;;;;;;10946059;32;20042;-73
2023/01/03 22:17:01;;;;;;;27.13;21.77;;;13.00;88.60;;;;;;10945916;32;20027;-73
2023/01/03 22:23:05;;;;;;;28.65;20.70;;;13.10;88.60;;;;;;10944418;32;20082;-73
2023/01/03 22:29:07;;;;;;;31.73;22.20;;;13.20;88.50;;;;;;10944677;32;20010;-73
2023/01/03 22:35:11;;;;;;;28.83;19.80;;;13.20;88.30;;;;;;10945561;32;20453;-73
2023/01/03 22:41:16;;;;;;;29.27;21.35;;;13.30;88.30;;;;;;10944893;32;20058;-73
2023/01/03 22:47:18;;;;;;;26.33;18.40;;;13.30;88.20;;;;;;10945003;32;20050;-73
2023/01/03 22:53:20;;;;;;;24.98;18.62;;;13.30;88.10;;;;;;10944775;32;20045;-73
2023/01/03 22:59:23;;;;;;;25.52;17.48;;;13.00;88.30;;;;;;10944508;32;20054;-74
2023/01/03 23:05:25;;;;;;;23.73;18.05;;;12.80;88.60;;;;;;10940769;32;20034;-73
2023/01/03 23:17:55;;;;;;;23.77;18.65;;;12.70;88.90;;;;;;10945122;32;20019;-73
2023/01/03 23:23:58;;;;;;;26.52;20.25;;;12.70;88.80;;;;;;10940287;32;20035;-74
2023/01/03 23:30:00;;;;;;;31.62;26.42;;;12.90;88.70;;;;;;10943345;32;20019;-73
2023/01/03 23:36:07;;;;;;;18.50;16.02;;;13.10;88.70;;;;;;10942236;32;20023;-74
2023/01/03 23:42:09;;;;;;;25.67;16.30;;;13.20;88.60;;;;;;10943551;32;20030;-73
2023/01/03 23:48:11;;;;;;;25.98;16.48;;;12.90;88.50;;;;;;10942862;32;20046;-73
2023/01/03 23:54:13;;;;;;;19.05;14.65;;;12.70;88.80;;;;;;10941113;32;20050;-73
